KAKO

Colorado Plains Regional Airport

Akron, Colorado, USA
METAR KAKO 172053Z AUTO 23009G15KT 10SM CLR 08/M11 A3001 RMK AO2 SLP174 T00831106 58019
Observed Flight Rules
Feb-17 @ 20:53 UTC (41 minutes ago) Visual Flight Rules
Wind Visibility Clouds
230° at 9 knots
 Gusting to 15 knots
10 miles
  • Clear skies
Temperatures Readings
Current 8°C / 46°F
Dewpoint -11°C / 12°F
Humidity 25%
Altimeter 30.01" Hg
Pressure 1017.4 hPa
Elevation 1421
METAR KAKO 172053Z AUTO 23009G15KT 10SM CLR 08/M11 A3001 RMK AO2 SLP174 T00831106 58019
Observed Flight Rules
Feb-17 @ 20:53 UTC
(41 minutes ago)
VFR
Wind Visibility
230° at 9 knots
 Gusting to 15 knots
10 miles
Clouds
  • Clear skies
Temperature Dewpoint
8°C / 46°F -11°C / 12°F
Humidity Altimeter Pressure
25% 30.01" Hg 1017.4 hPa